createdAt,value
2023-12-28T00:00:21.809Z,10.98
2023-12-28T00:03:24.987Z,9.20
2023-12-28T00:06:28.367Z,6.47
2023-12-28T00:09:31.827Z,6.75
2023-12-28T00:12:34.763Z,9.67
2023-12-28T00:15:37.926Z,7.37
2023-12-28T00:18:41.273Z,6.55
2023-12-28T00:21:45.554Z,10.57
2023-12-28T00:24:48.491Z,8.48
2023-12-28T00:27:51.719Z,11.20
2023-12-28T00:30:54.834Z,8.52
2023-12-28T00:33:58.027Z,9.80
2023-12-28T00:37:01.001Z,6.43
2023-12-28T00:40:04.675Z,8.27
2023-12-28T00:43:08.503Z,10.77
2023-12-28T00:46:11.779Z,8.02
2023-12-28T00:49:14.589Z,8.63
2023-12-28T00:52:17.968Z,9.02
2023-12-28T00:55:20.876Z,9.02
2023-12-28T00:58:24.161Z,9.37
2023-12-28T01:01:26.994Z,9.38
2023-12-28T01:04:30.643Z,10.60
2023-12-28T01:07:33.703Z,10.73
2023-12-28T01:10:36.971Z,8.05
2023-12-28T01:13:42.446Z,9.97
2023-12-28T01:16:46.378Z,9.55
2023-12-28T01:19:49.549Z,10.45
2023-12-28T01:22:52.998Z,13.13
2023-12-28T01:25:57.895Z,13.10
2023-12-28T01:29:03.290Z,7.97
2023-12-28T01:32:07.333Z,11.12
2023-12-28T01:35:10.837Z,7.82
2023-12-28T01:38:13.682Z,10.35
2023-12-28T01:41:17.213Z,11.52
2023-12-28T01:44:20.078Z,10.83
2023-12-28T01:47:23.212Z,8.40
2023-12-28T01:50:27.436Z,11.00
2023-12-28T01:53:31.102Z,9.27
2023-12-28T01:56:34.224Z,10.38
2023-12-28T01:59:38.653Z,10.07
2023-12-28T02:02:43.526Z,4.90
2023-12-28T02:05:47.889Z,10.85
2023-12-28T02:08:50.928Z,12.27
2023-12-28T02:11:55.855Z,8.98
2023-12-28T02:14:58.809Z,13.70
2023-12-28T02:18:21.245Z,11.57
2023-12-28T02:21:26.543Z,10.15
2023-12-28T02:24:29.427Z,8.85
2023-12-28T02:27:33.649Z,11.00
2023-12-28T02:30:36.856Z,12.53
2023-12-28T02:33:51.255Z,10.60
2023-12-28T02:36:57.951Z,9.80
2023-12-28T02:40:02.918Z,7.85
2023-12-28T02:43:10.129Z,7.82
2023-12-28T02:46:13.322Z,7.33
2023-12-28T02:49:17.215Z,7.80
2023-12-28T02:52:20.603Z,10.88
2023-12-28T02:55:23.683Z,13.48
2023-12-28T02:58:27.152Z,8.90
2023-12-28T03:01:30.280Z,9.70
2023-12-28T03:04:33.461Z,11.85
2023-12-28T03:07:38.060Z,11.25
2023-12-28T03:10:41.242Z,11.73
2023-12-28T03:13:43.992Z,8.68
2023-12-28T03:16:47.281Z,9.40
2023-12-28T03:19:50.140Z,11.55
2023-12-28T03:22:54.028Z,11.85
2023-12-28T03:25:57.017Z,11.00
2023-12-28T03:28:59.998Z,9.82
2023-12-28T03:32:02.944Z,8.40
2023-12-28T03:35:08.349Z,12.80
2023-12-28T03:38:11.347Z,9.40
2023-12-28T03:41:20.924Z,8.55
2023-12-28T03:44:23.889Z,8.63
2023-12-28T03:47:27.132Z,10.17
2023-12-28T03:50:29.863Z,10.85
2023-12-28T03:53:34.164Z,11.68
2023-12-28T03:56:37.051Z,7.65
2023-12-28T03:59:41.329Z,13.23
2023-12-28T04:02:45.458Z,10.13
2023-12-28T04:05:48.760Z,16.15
2023-12-28T04:08:51.576Z,15.15
2023-12-28T04:11:54.770Z,9.27
2023-12-28T04:14:58.325Z,13.32
2023-12-28T04:18:01.724Z,13.53
2023-12-28T04:21:05.195Z,12.55
2023-12-28T04:24:08.488Z,12.60
2023-12-28T04:27:11.717Z,11.38
2023-12-28T04:30:15.243Z,7.50
2023-12-28T04:33:20.520Z,9.83
2023-12-28T04:36:23.991Z,11.48
2023-12-28T04:39:27.381Z,13.35
2023-12-28T04:42:30.554Z,16.00
2023-12-28T04:45:33.425Z,13.80
2023-12-28T04:48:36.683Z,18.00
2023-12-28T04:51:44.883Z,13.68
2023-12-28T04:54:48.361Z,15.05
2023-12-28T04:57:51.290Z,16.05
2023-12-28T05:00:55.052Z,15.98
2023-12-28T05:03:57.892Z,15.63
2023-12-28T05:07:01.234Z,15.77
2023-12-28T05:10:04.236Z,14.93
2023-12-28T05:13:07.861Z,18.15
2023-12-28T05:16:10.910Z,14.38
2023-12-28T05:19:14.034Z,14.52
2023-12-28T05:22:16.868Z,16.73
2023-12-28T05:25:20.695Z,17.45
2023-12-28T05:28:23.419Z,20.23
2023-12-28T05:31:26.918Z,17.70
2023-12-28T05:34:29.832Z,16.75
2023-12-28T05:37:33.052Z,18.52
2023-12-28T05:40:35.906Z,18.50
2023-12-28T05:43:39.591Z,20.40
2023-12-28T05:46:42.541Z,17.77
2023-12-28T05:49:45.967Z,20.55
2023-12-28T05:52:48.951Z,19.00
2023-12-28T05:55:52.029Z,15.98
2023-12-28T05:58:54.911Z,19.30
2023-12-28T06:01:58.513Z,17.00
2023-12-28T06:05:01.872Z,15.05
2023-12-28T06:08:05.328Z,16.98
2023-12-28T06:11:09.155Z,17.17
2023-12-28T06:14:13.659Z,16.10
2023-12-28T06:17:16.959Z,20.70
2023-12-28T06:20:20.776Z,16.08
2023-12-28T06:23:24.107Z,14.87
2023-12-28T06:26:26.850Z,14.82
2023-12-28T06:29:29.906Z,10.57
2023-12-28T06:32:32.931Z,14.33
2023-12-28T06:35:36.084Z,14.57
2023-12-28T06:38:39.423Z,17.83
2023-12-28T06:41:42.592Z,13.55
2023-12-28T06:44:45.800Z,9.93
2023-12-28T06:47:48.939Z,13.57
2023-12-28T06:50:51.667Z,18.50
2023-12-28T06:53:54.979Z,22.85
2023-12-28T06:56:57.921Z,20.65
2023-12-28T07:00:03.358Z,23.08
2023-12-28T07:03:06.307Z,19.47
2023-12-28T07:06:10.432Z,21.70
2023-12-28T07:09:13.662Z,21.33
2023-12-28T07:12:17.004Z,22.87
2023-12-28T07:15:19.873Z,35.30
2023-12-28T07:18:24.565Z,28.15
2023-12-28T07:21:27.693Z,30.08
2023-12-28T07:24:31.049Z,30.40
2023-12-28T07:27:38.307Z,28.38
2023-12-28T07:30:42.816Z,27.20
2023-12-28T07:33:45.963Z,26.42
2023-12-28T07:36:49.277Z,28.52
2023-12-28T07:39:52.597Z,26.70
2023-12-28T07:42:55.968Z,20.33
2023-12-28T07:45:59.241Z,21.13
2023-12-28T07:49:02.615Z,24.17
2023-12-28T07:52:05.957Z,21.37
2023-12-28T07:55:10.231Z,25.70
2023-12-28T07:58:13.860Z,20.27
2023-12-28T08:01:17.268Z,25.40
2023-12-28T08:04:20.521Z,22.47
2023-12-28T08:07:23.443Z,19.02
2023-12-28T08:10:26.744Z,19.37
2023-12-28T08:13:29.567Z,19.65
2023-12-28T08:16:33.086Z,20.30
2023-12-28T08:19:36.637Z,19.57
2023-12-28T08:22:39.936Z,21.60
2023-12-28T08:25:42.955Z,18.27
2023-12-28T08:28:46.062Z,17.12
2023-12-28T08:31:49.201Z,19.60
2023-12-28T08:34:52.509Z,20.10
2023-12-28T08:37:55.607Z,20.25
2023-12-28T08:40:59.005Z,21.48
2023-12-28T08:44:01.986Z,17.25
2023-12-28T08:47:05.718Z,18.63
2023-12-28T08:50:09.010Z,23.40
2023-12-28T08:53:12.536Z,17.65
2023-12-28T08:56:18.436Z,21.42
2023-12-28T08:59:21.986Z,18.67
2023-12-28T09:02:24.792Z,19.33
2023-12-28T09:05:28.183Z,15.43
2023-12-28T09:08:31.318Z,17.83
2023-12-28T09:11:34.611Z,17.77
2023-12-28T09:14:37.549Z,17.95
2023-12-28T09:17:41.029Z,16.50
2023-12-28T09:20:44.400Z,15.03
2023-12-28T09:23:47.652Z,14.02
2023-12-28T09:26:50.711Z,14.82
2023-12-28T09:29:54.062Z,15.82
2023-12-28T09:32:57.239Z,16.87
2023-12-28T09:36:01.145Z,14.67
2023-12-28T09:39:05.421Z,14.93
2023-12-28T09:42:25.797Z,15.85
2023-12-28T09:45:28.845Z,15.38
2023-12-28T09:48:33.846Z,15.80
2023-12-28T09:51:36.944Z,14.37
2023-12-28T09:54:40.341Z,14.15
2023-12-28T09:57:43.761Z,14.90
2023-12-28T10:00:49.388Z,15.45
2023-12-28T10:03:52.672Z,13.70
2023-12-28T10:06:55.847Z,15.70
2023-12-28T10:09:59.224Z,14.02
2023-12-28T10:13:03.727Z,13.98
2023-12-28T10:16:10.498Z,13.13
2023-12-28T10:19:13.615Z,12.37
2023-12-28T10:22:17.132Z,14.43
2023-12-28T10:25:20.432Z,12.68
2023-12-28T10:28:23.689Z,14.38
2023-12-28T10:31:27.007Z,13.68
2023-12-28T10:34:30.853Z,14.87
2023-12-28T10:37:37.125Z,16.03
2023-12-28T10:40:43.132Z,14.63
2023-12-28T10:44:09.446Z,14.18
2023-12-28T10:47:20.150Z,14.85
2023-12-28T10:50:27.795Z,14.80
2023-12-28T10:53:50.618Z,14.20
2023-12-28T10:57:01.062Z,13.95
2023-12-28T11:00:13.154Z,12.95
2023-12-28T11:03:23.995Z,13.05
2023-12-28T11:06:31.133Z,13.30
2023-12-28T11:09:35.518Z,13.03
2023-12-28T11:12:39.996Z,14.32
2023-12-28T11:15:42.984Z,16.48
2023-12-28T11:18:47.979Z,13.60
2023-12-28T11:21:52.058Z,14.30
2023-12-28T11:24:55.700Z,14.00
2023-12-28T11:27:58.655Z,16.62
2023-12-28T11:31:02.824Z,14.45
2023-12-28T11:34:11.736Z,14.18
2023-12-28T11:37:22.400Z,14.03
2023-12-28T11:40:25.259Z,15.13
2023-12-28T11:43:29.118Z,14.15
2023-12-28T11:46:37.041Z,15.88
2023-12-28T11:49:43.736Z,15.25
2023-12-28T11:52:50.648Z,15.70
2023-12-28T11:55:54.003Z,13.70
2023-12-28T11:58:59.583Z,14.50
2023-12-28T12:02:02.817Z,25.45
2023-12-28T12:05:09.933Z,20.02
2023-12-28T12:08:15.594Z,13.40
2023-12-28T12:11:19.842Z,15.53
2023-12-28T12:14:22.829Z,14.73
2023-12-28T12:17:27.031Z,15.35
2023-12-28T12:20:31.221Z,16.62
2023-12-28T12:23:34.574Z,18.80
2023-12-28T12:26:37.531Z,20.27
2023-12-28T12:29:40.850Z,18.70
2023-12-28T12:32:45.090Z,17.15
2023-12-28T12:35:48.552Z,15.18
2023-12-28T12:38:51.964Z,16.37
2023-12-28T12:41:58.391Z,16.87
2023-12-28T12:45:01.334Z,17.08
2023-12-28T12:48:05.918Z,16.62
2023-12-28T12:51:09.662Z,14.95
2023-12-28T12:54:12.794Z,16.47
2023-12-28T12:57:16.580Z,18.90
2023-12-28T13:00:21.036Z,16.75
2023-12-28T13:03:29.191Z,20.30
2023-12-28T13:06:33.052Z,18.67
2023-12-28T13:09:36.867Z,20.27
2023-12-28T13:12:40.337Z,19.93
2023-12-28T13:15:43.388Z,19.48
2023-12-28T13:18:46.749Z,18.83
2023-12-28T13:21:49.983Z,18.20
2023-12-28T13:24:56.514Z,17.27
2023-12-28T13:28:17.944Z,16.57
2023-12-28T13:31:21.391Z,17.35
2023-12-28T13:34:24.405Z,16.83
2023-12-28T13:37:27.886Z,16.87
2023-12-28T13:40:32.591Z,21.63
2023-12-28T13:43:35.885Z,20.30
2023-12-28T13:46:38.603Z,19.15
2023-12-28T13:49:41.999Z,18.80
2023-12-28T13:52:44.853Z,17.77
2023-12-28T13:55:52.131Z,18.10
2023-12-28T13:58:55.264Z,20.23
2023-12-28T14:02:00.702Z,15.60
2023-12-28T14:05:04.703Z,18.83
2023-12-28T14:08:07.896Z,19.87
2023-12-28T14:11:11.332Z,19.60
2023-12-28T14:14:15.459Z,19.83
2023-12-28T14:17:21.191Z,17.90
2023-12-28T14:20:24.272Z,18.83
2023-12-28T14:23:27.857Z,21.10
2023-12-28T14:26:33.862Z,20.73
2023-12-28T14:29:37.923Z,27.80
2023-12-28T14:32:41.206Z,26.33
2023-12-28T14:35:47.525Z,30.52
2023-12-28T14:38:51.076Z,34.95
2023-12-28T14:41:54.367Z,36.27
2023-12-28T14:44:57.096Z,31.77
2023-12-28T14:48:00.877Z,36.33
2023-12-28T14:51:04.309Z,35.70
2023-12-28T14:54:07.619Z,43.50
2023-12-28T14:57:10.622Z,46.20
2023-12-28T15:00:14.413Z,40.57
2023-12-28T15:03:17.849Z,34.65
2023-12-28T15:06:21.020Z,31.75
2023-12-28T15:09:24.043Z,35.35
2023-12-28T15:12:27.716Z,39.60
2023-12-28T15:15:31.457Z,47.43
2023-12-28T15:18:35.636Z,47.35
2023-12-28T15:21:39.444Z,41.55
2023-12-28T15:24:43.075Z,45.97
2023-12-28T15:27:46.016Z,40.13
2023-12-28T15:30:49.666Z,48.23
2023-12-28T15:33:53.885Z,41.15
2023-12-28T15:36:58.270Z,41.22
2023-12-28T15:40:01.383Z,39.65
2023-12-28T15:43:04.694Z,37.37
2023-12-28T15:46:08.125Z,34.27
2023-12-28T15:49:11.614Z,36.53
2023-12-28T15:52:17.156Z,43.10
2023-12-28T15:55:20.965Z,47.67
2023-12-28T15:58:24.042Z,42.23
2023-12-28T16:01:27.448Z,40.73
2023-12-28T16:04:30.671Z,39.75
2023-12-28T16:07:35.042Z,38.17
2023-12-28T16:10:38.114Z,48.08
2023-12-28T16:13:44.606Z,47.23
2023-12-28T16:16:48.617Z,52.17
2023-12-28T16:19:51.861Z,47.80
2023-12-28T16:22:55.774Z,53.65
2023-12-28T16:25:58.696Z,49.33
2023-12-28T16:29:04.075Z,61.30
2023-12-28T16:32:08.131Z,63.85
2023-12-28T16:35:11.729Z,69.47
2023-12-28T16:38:14.774Z,73.47
2023-12-28T16:41:18.067Z,87.53
2023-12-28T16:44:21.262Z,96.63
2023-12-28T16:47:24.988Z,88.15
2023-12-28T16:50:27.954Z,88.30
2023-12-28T16:53:31.216Z,90.87
2023-12-28T16:56:34.076Z,89.90
2023-12-28T16:59:37.303Z,81.30
2023-12-28T17:02:46.179Z,113.93
2023-12-28T17:06:00.903Z,92.68
2023-12-28T17:09:15.175Z,96.78
2023-12-28T17:12:47.131Z,99.45
2023-12-28T17:16:00.680Z,96.60
2023-12-28T17:19:04.263Z,99.22
2023-12-28T17:22:12.228Z,92.95
2023-12-28T17:25:30.154Z,92.80
2023-12-28T17:29:08.633Z,88.50
2023-12-28T17:32:16.598Z,81.37
2023-12-28T17:35:21.937Z,88.37
2023-12-28T17:38:27.721Z,99.53
2023-12-28T17:41:36.179Z,76.12
2023-12-28T17:44:43.990Z,65.93
2023-12-28T17:48:10.748Z,58.22
2023-12-28T17:51:16.012Z,55.72
2023-12-28T17:54:19.541Z,64.65
2023-12-28T17:57:22.924Z,58.00
2023-12-28T18:00:25.996Z,68.60
2023-12-28T18:03:29.501Z,62.80
2023-12-28T18:06:33.118Z,62.33
2023-12-28T18:09:41.802Z,55.78
2023-12-28T18:12:45.436Z,57.78
2023-12-28T18:15:48.561Z,53.90
2023-12-28T18:18:52.396Z,51.92
2023-12-28T18:21:55.275Z,54.28
2023-12-28T18:24:59.741Z,52.92
2023-12-28T18:28:03.433Z,59.35
2023-12-28T18:31:07.619Z,58.00
2023-12-28T18:34:11.038Z,58.97
2023-12-28T18:37:17.801Z,65.70
2023-12-28T18:40:21.931Z,66.82
2023-12-28T18:43:25.360Z,64.80
2023-12-28T18:46:29.044Z,56.43
2023-12-28T18:49:34.910Z,56.30
2023-12-28T18:52:38.105Z,54.95
2023-12-28T18:55:42.688Z,60.78
2023-12-28T18:58:46.046Z,62.43
2023-12-28T19:01:51.054Z,53.30
2023-12-28T19:04:55.446Z,68.15
2023-12-28T19:08:00.813Z,62.58
2023-12-28T19:11:04.842Z,71.68
2023-12-28T19:14:08.959Z,66.47
2023-12-28T19:17:13.457Z,68.55
2023-12-28T19:20:17.821Z,72.03
2023-12-28T19:23:40.385Z,76.75
2023-12-28T19:26:45.195Z,76.47
2023-12-28T19:29:49.178Z,68.30
2023-12-28T19:32:54.137Z,73.03
2023-12-28T19:35:58.421Z,75.95
2023-12-28T19:39:03.823Z,72.12
2023-12-28T19:42:08.016Z,76.57
2023-12-28T19:45:12.767Z,70.60
2023-12-28T19:48:16.961Z,76.65
2023-12-28T19:51:21.658Z,71.68
2023-12-28T19:54:25.535Z,66.55
2023-12-28T19:57:29.732Z,65.75
2023-12-28T20:00:34.406Z,66.57
2023-12-28T20:03:40.173Z,75.80
2023-12-28T20:06:48.021Z,54.67
2023-12-28T20:09:52.730Z,61.58
2023-12-28T20:12:56.812Z,65.50
2023-12-28T20:16:00.755Z,66.87
2023-12-28T20:19:04.567Z,61.83
2023-12-28T20:22:08.527Z,66.32
2023-12-28T20:25:13.063Z,65.78
2023-12-28T20:28:18.038Z,62.88
2023-12-28T20:31:25.409Z,70.47
2023-12-28T20:34:29.838Z,64.12
2023-12-28T20:37:34.079Z,61.67
2023-12-28T20:40:38.728Z,60.87
2023-12-28T20:43:43.131Z,62.78
2023-12-28T20:46:47.772Z,55.83
2023-12-28T20:49:53.383Z,60.80
2023-12-28T20:52:58.005Z,58.17
2023-12-28T20:56:02.220Z,63.08
2023-12-28T20:59:06.904Z,60.33
2023-12-28T21:02:10.312Z,75.00
2023-12-28T21:05:13.936Z,71.37
2023-12-28T21:08:16.843Z,66.15
2023-12-28T21:11:19.952Z,76.47
2023-12-28T21:14:23.131Z,66.87
2023-12-28T21:17:26.497Z,69.97
2023-12-28T21:20:29.415Z,66.28
2023-12-28T21:23:32.904Z,61.45
2023-12-28T21:26:35.737Z,69.40
2023-12-28T21:29:40.521Z,69.73
2023-12-28T21:32:43.615Z,69.12
2023-12-28T21:35:46.879Z,65.65
2023-12-28T21:38:49.801Z,56.53
2023-12-28T21:41:53.069Z,66.63
2023-12-28T21:44:57.174Z,63.95
2023-12-28T21:48:00.679Z,63.83
2023-12-28T21:51:03.855Z,69.15
2023-12-28T21:54:07.426Z,60.22
2023-12-28T21:57:10.726Z,65.55
2023-12-28T22:00:14.213Z,64.22
2023-12-28T22:03:17.508Z,63.75
2023-12-28T22:06:20.263Z,67.33
2023-12-28T22:09:23.771Z,67.32
2023-12-28T22:12:29.498Z,70.82
2023-12-28T22:15:35.924Z,69.43
2023-12-28T22:18:39.054Z,65.83
2023-12-28T22:21:42.656Z,68.78
2023-12-28T22:24:45.528Z,64.95
2023-12-28T22:27:48.679Z,62.65
2023-12-28T22:30:51.497Z,69.10
2023-12-28T22:33:55.065Z,59.88
2023-12-28T22:36:57.937Z,67.10
2023-12-28T22:40:03.360Z,59.35
2023-12-28T22:43:06.396Z,61.28
2023-12-28T22:46:15.298Z,61.97
2023-12-28T22:49:18.292Z,62.38
2023-12-28T22:52:21.705Z,69.10
2023-12-28T22:55:24.492Z,58.67
2023-12-28T22:58:27.683Z,64.53
2023-12-28T23:01:30.528Z,59.47
2023-12-28T23:04:40.193Z,60.85
2023-12-28T23:07:49.500Z,57.17
2023-12-28T23:10:52.721Z,58.58
2023-12-28T23:13:56.405Z,63.63
2023-12-28T23:16:59.555Z,59.85
2023-12-28T23:20:02.740Z,64.83
2023-12-28T23:23:06.364Z,64.93
2023-12-28T23:26:09.285Z,79.93
2023-12-28T23:29:12.590Z,65.05
2023-12-28T23:32:15.398Z,64.82
2023-12-28T23:35:18.742Z,59.45
2023-12-28T23:38:21.674Z,58.90
2023-12-28T23:41:25.449Z,58.63
2023-12-28T23:44:28.212Z,54.47
2023-12-28T23:47:31.350Z,47.17
2023-12-28T23:50:34.312Z,51.05
2023-12-28T23:53:39.368Z,55.47
2023-12-28T23:56:42.275Z,54.08
2023-12-28T23:59:45.453Z,54.25
